createdAt,value
2019-02-15T00:00:01.899Z,74.10
2019-02-15T00:02:32.110Z,72.70
2019-02-15T00:05:01.466Z,76.40
2019-02-15T00:07:30.812Z,76.90
2019-02-15T00:10:00.306Z,76.90
2019-02-15T00:12:29.701Z,76.80
2019-02-15T00:14:59.900Z,77.10
2019-02-15T00:17:46.778Z,77.10
2019-02-15T00:20:21.790Z,74.50
2019-02-15T00:22:51.115Z,77.70
2019-02-15T00:25:20.456Z,77.40
2019-02-15T00:27:49.801Z,77.40
2019-02-15T00:30:19.137Z,77.30
2019-02-15T00:32:48.422Z,77.70
2019-02-15T00:35:17.750Z,78.00
2019-02-15T00:37:47.075Z,77.90
2019-02-15T00:40:16.402Z,77.60
2019-02-15T00:42:45.674Z,78.40
2019-02-15T00:45:16.621Z,77.00
2019-02-15T00:48:07.857Z,76.70
2019-02-15T00:50:54.657Z,76.80
2019-02-15T00:53:47.427Z,78.40
2019-02-15T00:56:41.476Z,78.60
2019-02-15T00:59:38.981Z,77.40
2019-02-15T01:02:32.923Z,78.20
2019-02-15T01:05:24.009Z,79.20
2019-02-15T01:08:11.178Z,78.40
2019-02-15T01:10:46.357Z,78.30
2019-02-15T01:13:18.487Z,79.20
2019-02-15T01:15:47.765Z,77.00
2019-02-15T01:18:17.142Z,80.60
2019-02-15T01:20:46.457Z,80.70
2019-02-15T01:23:15.819Z,80.00
2019-02-15T01:25:52.872Z,79.50
2019-02-15T01:28:27.731Z,80.10
2019-02-15T01:31:14.539Z,79.00
2019-02-15T01:33:54.078Z,80.00
2019-02-15T01:36:57.660Z,80.70
2019-02-15T01:39:41.965Z,80.40
2019-02-15T01:42:28.847Z,80.70
2019-02-15T01:45:20.139Z,71.80
2019-02-15T01:47:50.657Z,75.40
2019-02-15T01:50:20.009Z,80.80
2019-02-15T01:52:49.348Z,80.80
2019-02-15T01:55:18.652Z,81.20
2019-02-15T01:57:47.999Z,76.20
2019-02-15T02:00:18.702Z,70.40
2019-02-15T02:02:48.093Z,71.00
2019-02-15T02:05:17.379Z,70.40
2019-02-15T02:07:46.716Z,71.00
2019-02-15T02:10:16.034Z,74.90
2019-02-15T02:12:45.413Z,79.10
2019-02-15T02:15:14.708Z,77.20
2019-02-15T02:17:43.990Z,70.80
2019-02-15T02:20:13.333Z,74.40
2019-02-15T02:22:42.666Z,70.50
2019-02-15T02:25:11.991Z,73.70
2019-02-15T02:27:41.315Z,71.80
2019-02-15T02:30:10.726Z,81.00
2019-02-15T02:32:40.046Z,81.40
2019-02-15T02:35:09.460Z,81.80
2019-02-15T02:37:38.790Z,81.50
2019-02-15T02:40:08.382Z,81.50
2019-02-15T02:42:37.733Z,81.30
2019-02-15T02:45:07.156Z,81.60
2019-02-15T02:47:36.424Z,79.20
2019-02-15T02:50:06.005Z,73.50
2019-02-15T02:52:35.673Z,79.80
2019-02-15T02:55:04.998Z,83.00
2019-02-15T02:57:34.354Z,82.80
2019-02-15T03:00:03.736Z,82.90
2019-02-15T03:02:33.039Z,82.70
2019-02-15T03:05:02.362Z,80.40
2019-02-15T03:07:31.674Z,75.40
2019-02-15T03:10:00.994Z,74.90
2019-02-15T03:12:30.317Z,80.10
2019-02-15T03:14:59.623Z,82.60
2019-02-15T03:17:29.560Z,81.90
2019-02-15T03:19:58.883Z,81.60
2019-02-15T03:22:28.232Z,81.90
2019-02-15T03:24:57.600Z,81.80
2019-02-15T03:27:27.024Z,81.50
2019-02-15T03:29:56.352Z,73.80
2019-02-15T03:32:25.633Z,79.70
2019-02-15T03:34:55.004Z,83.00
2019-02-15T03:37:51.725Z,81.70
2019-02-15T03:40:42.474Z,80.70
2019-02-15T03:43:11.805Z,78.30
2019-02-15T03:45:45.148Z,81.90
2019-02-15T03:48:14.498Z,71.00
2019-02-15T03:50:43.781Z,80.70
2019-02-15T03:53:13.119Z,83.00
2019-02-15T03:55:42.423Z,83.20
2019-02-15T03:58:11.768Z,77.20
2019-02-15T04:00:41.113Z,72.80
2019-02-15T04:03:10.430Z,82.60
2019-02-15T04:05:39.735Z,80.80
2019-02-15T04:08:09.051Z,83.20
2019-02-15T04:10:38.406Z,82.70
2019-02-15T04:13:07.746Z,82.80
2019-02-15T04:15:37.087Z,83.20
2019-02-15T04:18:06.519Z,83.20
2019-02-15T04:20:35.948Z,81.30
2019-02-15T04:23:05.353Z,83.10
2019-02-15T04:25:34.677Z,82.70
2019-02-15T04:28:04.097Z,81.80
2019-02-15T04:30:33.325Z,82.80
2019-02-15T04:33:02.643Z,82.90
2019-02-15T04:35:34.951Z,82.80
2019-02-15T04:38:04.259Z,82.80
2019-02-15T04:40:33.574Z,82.80
2019-02-15T04:43:02.890Z,82.60
2019-02-15T04:45:32.211Z,82.50
2019-02-15T04:48:01.528Z,82.30
2019-02-15T04:50:30.869Z,82.40
2019-02-15T04:53:02.958Z,82.70
2019-02-15T04:55:31.154Z,82.80
2019-02-15T04:58:00.439Z,81.50
2019-02-15T05:00:29.760Z,82.50
2019-02-15T05:02:59.051Z,83.20
2019-02-15T05:05:28.374Z,82.90
2019-02-15T05:07:57.706Z,83.20
2019-02-15T05:10:27.049Z,83.70
2019-02-15T05:12:56.329Z,83.30
2019-02-15T05:15:25.745Z,83.20
2019-02-15T05:17:55.080Z,82.40
2019-02-15T05:20:24.384Z,83.20
2019-02-15T05:22:53.704Z,83.50
2019-02-15T05:25:23.061Z,83.70
2019-02-15T05:27:52.391Z,83.40
2019-02-15T05:30:21.701Z,83.70
2019-02-15T05:32:51.073Z,83.60
2019-02-15T05:35:20.399Z,83.20
2019-02-15T05:37:49.734Z,83.40
2019-02-15T05:40:19.057Z,83.30
2019-02-15T05:42:48.366Z,83.90
2019-02-15T05:45:17.698Z,83.40
2019-02-15T05:47:46.987Z,82.60
2019-02-15T05:50:16.325Z,83.60
2019-02-15T05:52:45.622Z,83.40
2019-02-15T05:55:14.932Z,83.80
2019-02-15T05:57:44.262Z,83.70
2019-02-15T06:00:13.606Z,83.80
2019-02-15T06:02:42.942Z,83.70
2019-02-15T06:05:12.275Z,84.20
2019-02-15T06:07:41.574Z,83.40
2019-02-15T06:10:11.031Z,82.80
2019-02-15T06:12:40.289Z,84.00
2019-02-15T06:15:15.097Z,83.80
2019-02-15T06:17:40.695Z,84.00
2019-02-15T06:20:10.046Z,84.40
2019-02-15T06:22:39.376Z,84.10
2019-02-15T06:25:08.683Z,83.10
2019-02-15T06:27:37.992Z,83.30
2019-02-15T06:30:07.817Z,83.40
2019-02-15T06:32:37.167Z,84.50
2019-02-15T06:35:06.484Z,83.70
2019-02-15T06:37:35.807Z,82.30
2019-02-15T06:40:05.338Z,74.70
2019-02-15T06:42:34.649Z,85.00
2019-02-15T06:45:04.002Z,85.10
2019-02-15T06:47:33.278Z,84.50
2019-02-15T06:50:02.666Z,83.70
2019-02-15T06:52:32.009Z,84.40
2019-02-15T06:55:01.362Z,84.40
2019-02-15T06:57:30.665Z,87.70
2019-02-15T07:00:28.169Z,86.10
2019-02-15T07:03:02.263Z,84.30
2019-02-15T07:05:31.594Z,82.50
2019-02-15T07:08:00.875Z,80.70
2019-02-15T07:10:30.174Z,78.90
2019-02-15T07:12:59.462Z,77.90
2019-02-15T07:15:33.702Z,78.20
2019-02-15T07:17:59.761Z,75.90
2019-02-15T07:20:29.106Z,75.20
2019-02-15T07:22:58.414Z,73.70
2019-02-15T07:25:27.759Z,70.90
2019-02-15T07:27:57.030Z,70.60
2019-02-15T07:30:26.404Z,71.30
2019-02-15T07:32:55.709Z,69.20
2019-02-15T07:35:25.044Z,67.10
2019-02-15T07:37:54.462Z,64.80
2019-02-15T07:40:23.809Z,64.70
2019-02-15T07:42:53.137Z,63.70
2019-02-15T07:45:22.771Z,63.60
2019-02-15T07:47:52.194Z,62.10
2019-02-15T07:50:21.502Z,60.70
2019-02-15T07:52:50.838Z,59.80
2019-02-15T07:55:20.118Z,59.50
2019-02-15T07:57:49.430Z,60.10
2019-02-15T08:00:18.775Z,59.50
2019-02-15T08:02:48.103Z,61.70
2019-02-15T08:05:17.433Z,61.10
2019-02-15T08:07:46.751Z,58.30
2019-02-15T08:10:16.083Z,58.00
2019-02-15T08:12:45.461Z,59.30
2019-02-15T08:15:14.760Z,60.40
2019-02-15T08:17:44.123Z,60.50
2019-02-15T08:20:13.412Z,59.40
2019-02-15T08:22:42.759Z,58.70
2019-02-15T08:25:12.084Z,59.30
2019-02-15T08:27:41.362Z,59.90
2019-02-15T08:30:11.107Z,60.00
2019-02-15T08:32:40.362Z,58.80
2019-02-15T08:35:10.137Z,57.30
2019-02-15T08:37:39.406Z,58.70
2019-02-15T08:40:09.511Z,57.30
2019-02-15T08:42:38.804Z,55.40
2019-02-15T08:45:09.852Z,54.60
2019-02-15T08:47:39.843Z,53.60
2019-02-15T08:50:09.945Z,53.20
2019-02-15T08:52:45.840Z,52.80
2019-02-15T08:55:15.866Z,51.80
2019-02-15T08:57:45.135Z,52.00
2019-02-15T09:00:14.526Z,52.40
2019-02-15T09:02:43.811Z,52.80
2019-02-15T09:05:13.169Z,51.80
2019-02-15T09:07:42.456Z,52.20
2019-02-15T09:10:12.398Z,51.70
2019-02-15T09:12:41.650Z,51.20
2019-02-15T09:15:13.849Z,52.80
2019-02-15T09:17:43.182Z,53.80
2019-02-15T09:20:12.743Z,53.10
2019-02-15T09:22:42.090Z,49.80
2019-02-15T09:25:11.516Z,51.10
2019-02-15T09:27:48.563Z,47.30
2019-02-15T09:30:17.888Z,49.70
2019-02-15T09:32:47.267Z,47.50
2019-02-15T09:35:16.597Z,48.90
2019-02-15T09:37:46.264Z,47.20
2019-02-15T09:40:15.616Z,47.40
2019-02-15T09:42:44.979Z,44.80
2019-02-15T09:45:14.307Z,45.70
2019-02-15T09:47:44.811Z,49.70
2019-02-15T09:50:14.126Z,47.40
2019-02-15T09:52:43.466Z,47.30
2019-02-15T09:55:12.770Z,45.40
2019-02-15T09:57:42.101Z,44.90
2019-02-15T10:00:11.479Z,44.50
2019-02-15T10:02:40.797Z,43.60
2019-02-15T10:05:10.123Z,43.00
2019-02-15T10:07:39.455Z,43.00
2019-02-15T10:10:08.843Z,44.90
2019-02-15T10:12:38.175Z,41.90
2019-02-15T10:15:07.582Z,41.10
2019-02-15T10:17:36.923Z,41.60
2019-02-15T10:20:06.326Z,41.50
2019-02-15T10:22:35.692Z,40.40
2019-02-15T10:25:05.163Z,39.90
2019-02-15T10:27:34.506Z,39.70
2019-02-15T10:30:03.827Z,50.00
2019-02-15T10:32:33.174Z,44.40
2019-02-15T10:35:02.502Z,47.00
2019-02-15T10:37:31.870Z,53.20
2019-02-15T10:40:01.176Z,54.20
2019-02-15T10:42:30.491Z,50.00
2019-02-15T10:44:59.791Z,40.10
2019-02-15T10:47:29.156Z,53.10
2019-02-15T10:49:58.435Z,50.80
2019-02-15T10:52:27.770Z,54.50
2019-02-15T10:54:57.044Z,45.80
2019-02-15T10:57:26.390Z,55.70
2019-02-15T10:59:55.790Z,53.60
2019-02-15T11:02:25.135Z,55.40
2019-02-15T11:04:54.513Z,52.80
2019-02-15T11:07:23.911Z,48.50
2019-02-15T11:09:53.274Z,46.00
2019-02-15T11:12:22.610Z,42.10
2019-02-15T11:14:51.946Z,43.20
2019-02-15T11:17:21.226Z,40.00
2019-02-15T11:19:50.586Z,45.50
2019-02-15T11:22:20.009Z,45.30
2019-02-15T11:24:49.327Z,40.20
2019-02-15T11:27:18.679Z,44.90
2019-02-15T11:29:48.068Z,45.70
2019-02-15T11:32:17.458Z,40.00
2019-02-15T11:34:46.745Z,51.40
2019-02-15T11:37:16.089Z,52.50
2019-02-15T11:39:45.396Z,48.80
2019-02-15T11:42:14.713Z,50.70
2019-02-15T11:44:44.093Z,47.10
2019-02-15T11:47:13.438Z,49.80
2019-02-15T11:49:42.741Z,50.50
2019-02-15T11:52:12.086Z,52.60
2019-02-15T11:54:41.390Z,52.20
2019-02-15T11:57:10.742Z,43.60
2019-02-15T11:59:40.090Z,49.50
2019-02-15T12:02:09.423Z,50.30
2019-02-15T12:04:38.728Z,46.30
2019-02-15T12:07:08.238Z,45.10
2019-02-15T12:09:37.588Z,46.70
2019-02-15T12:12:10.686Z,41.50
2019-02-15T12:14:37.859Z,44.20
2019-02-15T12:17:07.241Z,51.80
2019-02-15T12:19:36.548Z,43.60
2019-02-15T12:22:05.933Z,52.30
2019-02-15T12:24:35.271Z,39.40
2019-02-15T12:27:04.647Z,48.10
2019-02-15T12:29:33.963Z,50.00
2019-02-15T12:32:03.333Z,37.90
2019-02-15T12:34:32.713Z,44.70
2019-02-15T12:37:02.079Z,48.30
2019-02-15T12:39:31.383Z,45.70
2019-02-15T12:42:00.860Z,44.60
2019-02-15T12:44:32.078Z,48.20
2019-02-15T12:47:01.987Z,53.20
2019-02-15T12:53:23.387Z,51.30
2019-02-15T12:55:52.975Z,47.20
2019-02-15T12:58:22.621Z,46.10
2019-02-15T13:00:52.420Z,52.60
2019-02-15T13:03:22.044Z,44.00
2019-02-15T13:05:57.447Z,46.70
2019-02-15T13:08:23.233Z,43.30
2019-02-15T13:11:14.162Z,49.20
2019-02-15T13:13:45.349Z,47.00
2019-02-15T13:16:14.992Z,49.80
2019-02-15T13:18:46.170Z,50.90
2019-02-15T13:21:18.545Z,48.20
2019-02-15T13:23:48.607Z,50.20
2019-02-15T13:26:18.119Z,50.30
2019-02-15T13:32:10.664Z,47.50
2019-02-15T13:34:41.166Z,43.00
2019-02-15T13:37:10.710Z,53.30
2019-02-15T13:39:41.201Z,51.30
2019-02-15T13:42:10.577Z,51.00
2019-02-15T13:44:39.869Z,46.10
2019-02-15T13:47:09.227Z,53.00
2019-02-15T13:49:38.541Z,51.90
2019-02-15T13:52:07.980Z,47.50
2019-02-15T13:54:38.534Z,42.60
2019-02-15T13:57:08.094Z,48.80
2019-02-15T13:59:39.074Z,49.50
2019-02-15T14:02:08.528Z,43.00
2019-02-15T14:04:38.047Z,46.20
2019-02-15T14:07:18.270Z,52.60
2019-02-15T14:09:47.623Z,49.70
2019-02-15T14:12:16.957Z,52.00
2019-02-15T14:14:46.361Z,49.70
2019-02-15T14:17:15.730Z,46.20
2019-02-15T14:19:45.174Z,47.80
2019-02-15T14:22:14.620Z,47.30
2019-02-15T14:24:43.962Z,50.20
2019-02-15T14:27:13.338Z,50.50
2019-02-15T14:29:42.714Z,48.20
2019-02-15T14:32:12.669Z,51.50
2019-02-15T14:34:42.362Z,42.60
2019-02-15T14:37:11.808Z,44.60
2019-02-15T14:39:41.231Z,51.80
2019-02-15T14:42:10.588Z,45.30
2019-02-15T14:44:41.051Z,44.00
2019-02-15T14:47:10.599Z,52.30
2019-02-15T14:49:46.934Z,50.90
2019-02-15T14:52:16.830Z,48.80
2019-02-15T14:54:46.219Z,42.60
2019-02-15T14:57:15.790Z,47.50
2019-02-15T14:59:46.814Z,50.70
2019-02-15T15:02:16.165Z,50.40
2019-02-15T15:04:45.467Z,50.50
2019-02-15T15:07:14.847Z,52.10
2019-02-15T15:09:44.191Z,52.80
2019-02-15T15:12:13.631Z,53.60
2019-02-15T15:14:42.965Z,47.20
2019-02-15T15:17:12.355Z,44.70
2019-02-15T15:19:41.708Z,45.70
2019-02-15T15:22:14.115Z,50.60
2019-02-15T15:24:43.464Z,43.90
2019-02-15T15:27:12.822Z,47.40
2019-02-15T15:29:45.248Z,49.20
2019-02-15T15:32:14.579Z,53.30
2019-02-15T15:34:44.051Z,49.60
2019-02-15T15:37:16.554Z,48.60
2019-02-15T15:39:44.397Z,44.80
2019-02-15T15:42:13.699Z,47.60
2019-02-15T15:44:43.007Z,46.20
2019-02-15T15:47:12.351Z,45.90
2019-02-15T15:49:41.695Z,46.20
2019-02-15T15:52:11.041Z,47.50
2019-02-15T15:54:40.329Z,45.00
2019-02-15T15:57:09.694Z,49.30
2019-02-15T15:59:39.017Z,44.80
2019-02-15T16:02:08.367Z,50.50
2019-02-15T16:04:37.696Z,48.70
2019-02-15T16:07:07.085Z,50.20
2019-02-15T16:09:36.394Z,48.70
2019-02-15T16:12:05.719Z,47.60
2019-02-15T16:14:35.255Z,49.80
2019-02-15T16:17:04.584Z,48.50
2019-02-15T16:19:40.361Z,51.20
2019-02-15T16:22:04.935Z,51.00
2019-02-15T16:24:34.334Z,52.10
2019-02-15T16:27:03.635Z,49.10
2019-02-15T16:29:33.044Z,49.00
2019-02-15T16:32:02.342Z,46.80
2019-02-15T16:34:31.810Z,46.60
2019-02-15T16:37:01.116Z,46.50
2019-02-15T16:39:30.444Z,44.00
2019-02-15T16:41:59.806Z,47.70
2019-02-15T16:44:29.143Z,49.50
2019-02-15T16:46:58.497Z,50.20
2019-02-15T16:49:27.805Z,53.30
2019-02-15T16:51:57.164Z,52.70
2019-02-15T16:54:26.482Z,48.70
2019-02-15T16:56:55.833Z,50.70
2019-02-15T16:59:25.139Z,48.00
2019-02-15T17:01:54.502Z,45.80
2019-02-15T17:04:23.835Z,47.30
2019-02-15T17:06:53.182Z,48.30
2019-02-15T17:09:22.494Z,49.20
2019-02-15T17:11:51.869Z,50.70
2019-02-15T17:14:21.206Z,52.70
2019-02-15T17:16:50.620Z,54.10
2019-02-15T17:19:19.906Z,52.90
2019-02-15T17:21:49.268Z,53.40
2019-02-15T17:24:18.555Z,54.20
2019-02-15T17:26:48.091Z,55.10
2019-02-15T17:29:17.438Z,52.80
2019-02-15T17:31:46.772Z,54.30
2019-02-15T17:34:16.107Z,52.90
2019-02-15T17:36:45.471Z,54.90
2019-02-15T17:39:14.801Z,54.00
2019-02-15T17:41:44.103Z,56.10
2019-02-15T17:44:13.400Z,53.40
2019-02-15T17:46:42.902Z,53.60
2019-02-15T17:49:12.310Z,53.00
2019-02-15T17:51:41.734Z,54.40
2019-02-15T17:54:11.173Z,53.70
2019-02-15T17:56:40.536Z,54.20
2019-02-15T17:59:09.884Z,54.20
2019-02-15T18:01:39.243Z,54.80
2019-02-15T18:04:08.627Z,56.60
2019-02-15T18:06:38.133Z,57.30
2019-02-15T18:09:07.455Z,57.40
2019-02-15T18:11:36.789Z,57.30
2019-02-15T18:14:06.126Z,56.00
2019-02-15T18:16:35.523Z,56.30
2019-02-15T18:19:10.105Z,56.50
2019-02-15T18:21:35.847Z,57.10
2019-02-15T18:24:05.207Z,56.80
2019-02-15T18:26:34.586Z,57.60
2019-02-15T18:29:04.007Z,58.50
2019-02-15T18:31:33.370Z,58.50
2019-02-15T18:34:02.677Z,58.10
2019-02-15T18:36:32.181Z,58.50
2019-02-15T18:39:01.532Z,58.30
2019-02-15T18:41:30.856Z,58.50
2019-02-15T18:44:00.272Z,58.80
2019-02-15T18:46:29.575Z,58.50
2019-02-15T18:49:00.498Z,58.50
2019-02-15T18:51:30.070Z,58.60
2019-02-15T18:53:59.438Z,58.70
2019-02-15T18:56:28.789Z,58.70
2019-02-15T18:58:58.298Z,58.80
2019-02-15T19:01:27.682Z,60.30
2019-02-15T19:03:57.091Z,59.60
2019-02-15T19:06:26.479Z,59.10
2019-02-15T19:08:56.905Z,59.30
2019-02-15T19:11:26.298Z,59.20
2019-02-15T19:13:55.646Z,60.00
2019-02-15T19:16:24.990Z,61.40
2019-02-15T19:18:54.386Z,62.00
2019-02-15T19:21:23.838Z,63.40
2019-02-15T19:23:53.713Z,60.40
2019-02-15T19:26:23.071Z,61.60
2019-02-15T19:28:52.440Z,60.30
2019-02-15T19:31:21.886Z,60.30
2019-02-15T19:33:51.240Z,61.00
2019-02-15T19:36:20.890Z,61.90
2019-02-15T19:38:50.327Z,60.50
2019-02-15T19:41:20.183Z,60.80
2019-02-15T19:43:49.587Z,60.90
2019-02-15T19:46:18.985Z,60.80
2019-02-15T19:48:48.378Z,60.70
2019-02-15T19:51:17.733Z,61.60
2019-02-15T19:53:47.042Z,60.80
2019-02-15T19:56:16.470Z,60.50
2019-02-15T19:58:45.791Z,63.00
2019-02-15T20:01:15.178Z,62.40
2019-02-15T20:03:44.666Z,64.40
2019-02-15T20:06:14.221Z,64.50
2019-02-15T20:08:43.560Z,63.20
2019-02-15T20:11:12.912Z,63.60
2019-02-15T20:13:42.251Z,61.10
2019-02-15T20:16:11.647Z,62.10
2019-02-15T20:18:40.960Z,63.10
2019-02-15T20:21:10.354Z,62.90
2019-02-15T20:23:39.713Z,61.50
2019-02-15T20:26:09.076Z,62.60
2019-02-15T20:28:38.391Z,62.10
2019-02-15T20:31:07.825Z,61.30
2019-02-15T20:33:37.239Z,61.70
2019-02-15T20:36:06.570Z,62.10
2019-02-15T20:38:36.624Z,63.50
2019-02-15T20:41:05.963Z,63.40
2019-02-15T20:43:35.305Z,66.60
2019-02-15T20:46:04.601Z,69.10
2019-02-15T20:48:34.085Z,67.00
2019-02-15T20:51:03.436Z,66.90
2019-02-15T20:53:32.746Z,66.00
2019-02-15T20:56:02.079Z,69.40
2019-02-15T20:58:31.467Z,69.60
2019-02-15T21:01:00.854Z,67.60
2019-02-15T21:03:30.212Z,67.50
2019-02-15T21:05:59.575Z,65.20
2019-02-15T21:08:28.906Z,70.50
2019-02-15T21:10:58.267Z,67.60
2019-02-15T21:13:27.545Z,69.30
2019-02-15T21:15:56.984Z,64.80
2019-02-15T21:18:26.301Z,66.70
2019-02-15T21:20:55.723Z,67.50
2019-02-15T21:23:25.035Z,64.50
2019-02-15T21:25:54.393Z,68.70
2019-02-15T21:28:23.707Z,70.00
2019-02-15T21:30:53.070Z,71.10
2019-02-15T21:33:22.397Z,71.30
2019-02-15T21:35:51.776Z,71.30
2019-02-15T21:38:21.089Z,71.70
2019-02-15T21:40:50.439Z,71.10
2019-02-15T21:43:19.749Z,69.00
2019-02-15T21:45:49.055Z,71.20
2019-02-15T21:48:18.364Z,68.50
2019-02-15T21:50:47.701Z,66.60
2019-02-15T21:53:16.986Z,70.50
2019-02-15T21:55:46.348Z,67.30
2019-02-15T21:58:15.697Z,72.10
2019-02-15T22:00:45.094Z,72.80
2019-02-15T22:03:14.385Z,73.30
2019-02-15T22:05:43.733Z,72.50
2019-02-15T22:08:13.035Z,73.00
2019-02-15T22:10:42.364Z,70.10
2019-02-15T22:13:11.684Z,70.70
2019-02-15T22:15:41.046Z,68.70
2019-02-15T22:18:10.327Z,71.00
2019-02-15T22:20:39.707Z,73.80
2019-02-15T22:23:09.014Z,71.30
2019-02-15T22:25:38.379Z,65.30
2019-02-15T22:28:07.702Z,66.80
2019-02-15T22:30:37.096Z,74.00
2019-02-15T22:33:06.443Z,66.30
2019-02-15T22:35:35.805Z,70.10
2019-02-15T22:38:05.143Z,73.70
2019-02-15T22:40:36.278Z,72.70
2019-02-15T22:43:17.586Z,73.80
2019-02-15T22:45:47.095Z,75.50
2019-02-15T22:48:16.523Z,74.80
2019-02-15T22:50:45.846Z,70.60
2019-02-15T22:53:15.191Z,72.70
2019-02-15T22:55:44.504Z,75.80
2019-02-15T22:58:13.846Z,73.90
2019-02-15T23:00:57.354Z,72.80
2019-02-15T23:03:27.226Z,74.20
2019-02-15T23:05:56.627Z,73.30
2019-02-15T23:08:25.954Z,73.60
2019-02-15T23:10:55.269Z,74.00
2019-02-15T23:13:24.593Z,72.10
2019-02-15T23:15:53.883Z,73.00
2019-02-15T23:18:23.201Z,73.30
2019-02-15T23:20:52.516Z,76.10
2019-02-15T23:23:21.845Z,76.10
2019-02-15T23:25:51.162Z,75.10
2019-02-15T23:28:20.513Z,76.20
2019-02-15T23:30:49.842Z,75.60
2019-02-15T23:33:19.120Z,72.80
2019-02-15T23:35:48.454Z,76.30
2019-02-15T23:38:17.767Z,76.00
2019-02-15T23:40:47.095Z,76.90
2019-02-15T23:43:16.394Z,76.90
2019-02-15T23:45:45.751Z,76.00
2019-02-15T23:48:15.084Z,72.00
2019-02-15T23:50:54.425Z,76.80
2019-02-15T23:53:18.156Z,76.60
2019-02-15T23:55:47.543Z,74.80
2019-02-15T23:58:16.851Z,76.70
